Hlavní strana
METAR-TAF:

METAR-TAF

Letiště :

Karlstad, Švédsko

zeměpisná šířka: 59-26-41N, zeměpisná délka: 013-20-15E, výška: 107 m

Aktuální stav počasí

Zpráva byla vytvořena před 39 minutami, v 13:20 UTC
Jihojihozápadní vítr 12 kt
Teplota 19°C
Vlhkost vzduchu 49%
Tlak 1031 hPa
Viditelnost 10 km a více
Žádná oblačnost pod 1500 m, nevyskytují se cumulonimby.

METAR: ESOK 261320Z 21012KT CAVOK 19/08 Q1031

Čas: 15:59 (13:59 UTC)

Předpověď počasí

Zpráva byla vytvořena před 2 hodinami a 29 minutami, v 11:30 UTC
Předpověď platná od 26 v 12 UTC do 26 v 15 UTC
Jižní vítr 10 kt
Viditelnost 10 km a více
Žádná oblačnost pod 1500 m, nevyskytují se cumulonimby.

TAF: ESOK 261130Z 2612/2615 18010KT CAVOK

Stav a předpovědi počasí z více než 4 000 letišť (zprávy METAR a TAF).

Červené a žluté tečky na mapě představují dostupné meteorologické stanice.

Když kurzor umístíte na tečku, zobrazí se název stanice.

Pak kliknutím zobrazíte stav a předpověď počasí.

Chcete-li změnit mapu, kliknutím na zelené tlačítko se znaménkem +mapu přiblížíte, kliknutím na zelené tlačítko se znaménkem – mapu oddálíte a kliknutím na zelené šipky přejdete na sousední mapy.


METAR-TAF: